createdAt,value
2022-08-22T00:00:13.654Z,3.78
2022-08-22T00:03:01.016Z,3.37
2022-08-22T00:03:08.441Z,3.33
2022-08-22T00:06:07.295Z,3.75
2022-08-22T00:09:00.747Z,3.15
2022-08-22T00:11:38.761Z,3.33
2022-08-22T00:14:48.202Z,4.20
2022-08-22T00:17:28.422Z,3.53
2022-08-22T00:20:03.709Z,3.47
2022-08-22T00:22:51.350Z,3.90
2022-08-22T00:25:42.890Z,4.05
2022-08-22T00:28:16.068Z,3.42
2022-08-22T00:30:52.474Z,3.60
2022-08-22T00:33:29.737Z,3.45
2022-08-22T00:36:13.151Z,3.50
2022-08-22T00:39:10.824Z,3.38
2022-08-22T00:42:31.375Z,3.80
2022-08-22T00:45:42.818Z,3.40
2022-08-22T00:48:47.833Z,4.00
2022-08-22T00:51:31.744Z,3.67
2022-08-22T00:54:18.303Z,3.55
2022-08-22T00:57:07.954Z,3.22
2022-08-22T00:59:57.210Z,3.77
2022-08-22T01:02:58.179Z,4.15
2022-08-22T01:05:46.258Z,3.95
2022-08-22T01:08:52.314Z,4.05
2022-08-22T01:11:50.818Z,3.67
2022-08-22T01:14:39.975Z,3.73
2022-08-22T01:17:25.506Z,3.47
2022-08-22T01:24:00.183Z,3.53
2022-08-22T01:26:55.309Z,3.88
2022-08-22T01:32:32.645Z,4.25
2022-08-22T01:35:25.427Z,3.63
2022-08-22T01:38:22.241Z,3.50
2022-08-22T01:41:13.204Z,3.97
2022-08-22T01:44:22.561Z,3.73
2022-08-22T01:47:41.790Z,3.92
2022-08-22T01:50:24.519Z,3.30
2022-08-22T01:53:10.119Z,3.60
2022-08-22T01:56:01.562Z,3.42
2022-08-22T01:58:34.745Z,3.80
2022-08-22T02:04:53.683Z,3.50
2022-08-22T02:07:39.839Z,3.35
2022-08-22T02:10:43.693Z,3.80
2022-08-22T02:13:13.916Z,3.77
2022-08-22T02:15:47.763Z,3.80
2022-08-22T02:18:25.649Z,3.28
2022-08-22T02:21:14.479Z,3.42
2022-08-22T02:24:17.846Z,3.60
2022-08-22T02:27:12.543Z,3.67
2022-08-22T02:29:49.550Z,4.00
2022-08-22T02:32:40.821Z,4.43
2022-08-22T02:35:11.369Z,3.53
2022-08-22T02:37:57.518Z,3.90
2022-08-22T02:40:53.663Z,3.60
2022-08-22T02:43:30.023Z,3.45
2022-08-22T02:46:17.980Z,4.70
2022-08-22T02:48:51.164Z,3.95
2022-08-22T02:51:59.289Z,4.28
2022-08-22T02:54:48.023Z,4.63
2022-08-22T02:57:21.436Z,3.72
2022-08-22T03:00:31.972Z,3.78
2022-08-22T03:03:04.404Z,5.47
2022-08-22T03:05:38.119Z,4.45
2022-08-22T03:08:13.339Z,3.67
2022-08-22T03:10:48.056Z,4.70
2022-08-22T03:13:37.295Z,4.50
2022-08-22T03:16:13.685Z,4.68
2022-08-22T03:19:02.873Z,3.95
2022-08-22T03:21:41.627Z,5.30
2022-08-22T03:24:26.316Z,4.40
2022-08-22T03:27:00.418Z,4.05
2022-08-22T03:29:33.626Z,4.00
2022-08-22T03:32:09.460Z,4.22
2022-08-22T03:34:41.762Z,3.90
2022-08-22T03:37:16.098Z,4.28
2022-08-22T03:39:53.644Z,4.82
2022-08-22T03:45:46.523Z,4.93
2022-08-22T03:48:41.843Z,4.20
2022-08-22T03:51:31.393Z,4.63
2022-08-22T03:54:24.644Z,4.78
2022-08-22T03:57:13.788Z,4.60
2022-08-22T04:00:03.606Z,5.53
2022-08-22T04:02:52.318Z,4.97
2022-08-22T04:05:32.777Z,4.28
2022-08-22T04:08:54.272Z,5.03
2022-08-22T04:11:53.124Z,4.60
2022-08-22T04:14:25.753Z,4.00
2022-08-22T04:17:41.281Z,3.87
2022-08-22T04:20:18.330Z,4.38
2022-08-22T04:23:01.241Z,3.55
2022-08-22T04:25:41.008Z,3.60
2022-08-22T04:28:30.582Z,4.07
2022-08-22T04:31:09.526Z,3.57
2022-08-22T04:37:10.101Z,4.00
2022-08-22T04:43:10.479Z,3.58
2022-08-22T04:45:46.639Z,4.70
2022-08-22T04:48:21.462Z,3.58
2022-08-22T04:51:13.198Z,3.80
2022-08-22T04:53:56.245Z,4.28
2022-08-22T04:56:40.795Z,3.95
2022-08-22T04:59:14.818Z,4.10
2022-08-22T05:01:54.409Z,4.50
2022-08-22T05:04:29.307Z,4.95
2022-08-22T05:07:33.942Z,4.20
2022-08-22T05:10:19.276Z,4.22
2022-08-22T05:12:57.858Z,4.03
2022-08-22T05:15:36.571Z,4.25
2022-08-22T05:18:20.033Z,4.60
2022-08-22T05:20:51.423Z,4.97
2022-08-22T05:23:21.268Z,4.80
2022-08-22T05:25:52.216Z,5.30
2022-08-22T05:31:25.435Z,4.40
2022-08-22T05:34:07.328Z,4.72
2022-08-22T05:36:45.878Z,5.78
2022-08-22T05:52:31.104Z,5.00
2022-08-22T05:55:19.291Z,4.87
2022-08-22T05:58:26.640Z,5.72
2022-08-22T06:01:15.412Z,5.35
2022-08-22T06:04:32.811Z,6.00
2022-08-22T06:07:26.248Z,6.03
2022-08-22T06:10:16.613Z,5.67
2022-08-22T06:12:56.027Z,5.05
2022-08-22T06:15:32.853Z,5.63
2022-08-22T06:18:06.648Z,5.28
2022-08-22T06:20:41.326Z,5.85
2022-08-22T06:23:12.635Z,5.93
2022-08-22T06:25:48.633Z,5.70
2022-08-22T06:28:27.310Z,5.53
2022-08-22T06:30:57.009Z,5.93
2022-08-22T06:33:31.871Z,4.85
2022-08-22T06:36:32.690Z,5.40
2022-08-22T06:39:17.777Z,4.88
2022-08-22T06:42:16.742Z,5.93
2022-08-22T06:45:19.492Z,6.22
2022-08-22T06:50:59.980Z,6.00
2022-08-22T06:53:39.635Z,5.60
2022-08-22T06:59:03.514Z,6.30
2022-08-22T07:01:35.934Z,5.70
2022-08-22T07:04:32.950Z,5.40
2022-08-22T07:07:02.559Z,5.22
2022-08-22T07:09:41.921Z,6.10
2022-08-22T07:12:55.895Z,6.05
2022-08-22T07:15:37.456Z,6.50
2022-08-22T07:18:09.459Z,5.80
2022-08-22T07:20:50.105Z,5.32
2022-08-22T07:23:48.556Z,6.15
2022-08-22T07:26:53.349Z,6.18
2022-08-22T07:29:29.442Z,6.32
2022-08-22T07:35:19.547Z,6.35
2022-08-22T07:41:32.560Z,6.38
2022-08-22T07:44:33.810Z,6.47
2022-08-22T07:47:10.126Z,6.10
2022-08-22T07:49:55.802Z,6.20
2022-08-22T07:52:24.648Z,5.60
2022-08-22T07:55:03.293Z,6.30
2022-08-22T07:57:35.605Z,7.53
2022-08-22T08:00:14.353Z,6.37
2022-08-22T08:03:01.619Z,6.50
2022-08-22T08:05:34.413Z,6.70
2022-08-22T08:08:09.493Z,6.88
2022-08-22T08:10:53.947Z,6.25
2022-08-22T08:13:52.484Z,6.80
2022-08-22T08:16:30.143Z,6.90
2022-08-22T08:21:55.000Z,6.57
2022-08-22T08:24:36.422Z,7.10
2022-08-22T08:27:34.965Z,6.70
2022-08-22T08:30:15.431Z,6.65
2022-08-22T08:32:57.466Z,6.72
2022-08-22T08:36:02.894Z,6.60
2022-08-22T08:39:05.291Z,6.60
2022-08-22T08:41:53.418Z,6.17
2022-08-22T08:44:58.617Z,6.40
2022-08-22T08:47:58.224Z,6.75
2022-08-22T08:50:46.885Z,7.00
2022-08-22T08:53:31.255Z,6.03
2022-08-22T08:56:02.918Z,7.07
2022-08-22T08:58:54.050Z,6.10
2022-08-22T09:05:02.109Z,6.10
2022-08-22T09:07:32.314Z,5.90
2022-08-22T09:13:57.907Z,6.00
2022-08-22T09:20:27.713Z,6.32
2022-08-22T09:23:46.132Z,5.75
2022-08-22T09:29:54.437Z,6.40
2022-08-22T09:32:46.565Z,6.35
2022-08-22T09:35:19.132Z,5.75
2022-08-22T09:38:21.219Z,6.90
2022-08-22T09:41:21.527Z,5.93
2022-08-22T09:44:09.108Z,6.50
2022-08-22T09:47:07.640Z,6.45
2022-08-22T09:52:52.310Z,6.32
2022-08-22T09:55:43.028Z,6.43
2022-08-22T10:02:15.558Z,5.80
2022-08-22T10:05:40.403Z,6.20
2022-08-22T10:14:10.564Z,6.18
2022-08-22T10:17:09.826Z,5.30
2022-08-22T10:19:50.953Z,6.70
2022-08-22T10:22:31.152Z,6.53
2022-08-22T10:25:23.327Z,5.93
2022-08-22T10:34:11.014Z,6.20
2022-08-22T10:36:44.762Z,5.80
2022-08-22T10:39:24.964Z,5.97
2022-08-22T10:42:09.972Z,5.72
2022-08-22T10:52:15.492Z,6.10
2022-08-22T10:55:10.708Z,6.30
2022-08-22T11:05:01.830Z,6.10
2022-08-22T12:39:42.540Z,4.78
2022-08-22T12:42:23.097Z,4.40
2022-08-22T12:45:27.466Z,4.70
2022-08-22T12:52:06.936Z,4.88
2022-08-22T12:58:33.189Z,5.10
2022-08-22T13:10:49.908Z,5.03
2022-08-22T14:04:36.469Z,4.30
2022-08-22T14:07:14.179Z,4.33
2022-08-22T14:16:40.188Z,3.55
2022-08-22T14:22:32.532Z,4.00
2022-08-22T14:25:22.001Z,4.38
2022-08-22T14:34:45.429Z,4.15
2022-08-22T14:41:52.771Z,4.45
2022-08-22T14:44:29.308Z,4.22
2022-08-22T14:46:59.189Z,3.88
2022-08-22T14:49:34.611Z,4.38
2022-08-22T14:52:19.619Z,4.00
2022-08-22T14:54:48.411Z,4.82
2022-08-22T14:57:21.556Z,4.30
2022-08-22T14:59:53.126Z,4.80
2022-08-22T15:02:47.762Z,2.85
2022-08-22T15:08:50.047Z,4.88
2022-08-22T15:11:25.106Z,4.72
2022-08-22T15:14:13.450Z,4.65
2022-08-22T15:16:54.348Z,4.35
2022-08-22T15:19:27.510Z,4.93
2022-08-22T15:22:19.796Z,5.15
2022-08-22T15:25:19.386Z,4.70
2022-08-22T15:28:05.723Z,4.80
2022-08-22T15:30:39.034Z,4.78
2022-08-22T15:33:54.141Z,5.30
2022-08-22T15:37:08.365Z,4.50
2022-08-22T15:40:12.778Z,5.28
2022-08-22T15:43:16.459Z,4.75
2022-08-22T15:45:51.015Z,4.95
2022-08-22T15:48:26.742Z,4.10
2022-08-22T15:51:11.669Z,5.70
2022-08-22T15:53:48.015Z,4.95
2022-08-22T15:56:26.572Z,5.38
2022-08-22T15:59:20.975Z,5.43
2022-08-22T16:01:57.398Z,5.80
2022-08-22T16:04:56.456Z,4.95
2022-08-22T16:07:56.003Z,4.93
2022-08-22T16:10:23.711Z,5.95
2022-08-22T16:16:56.165Z,5.87
2022-08-22T16:19:26.691Z,5.07
2022-08-22T16:21:54.733Z,5.43
2022-08-22T16:24:23.191Z,5.97
2022-08-22T16:30:12.010Z,5.20
2022-08-22T16:32:44.676Z,5.50
2022-08-22T16:35:23.792Z,5.03
2022-08-22T16:38:00.889Z,6.03
2022-08-22T16:53:45.628Z,5.03
2022-08-22T16:56:30.697Z,3.58
2022-08-22T16:59:22.828Z,5.57
2022-08-22T17:01:51.830Z,5.43
2022-08-22T17:04:56.714Z,6.00
2022-08-22T17:10:58.785Z,5.60
2022-08-22T17:14:08.755Z,5.70
2022-08-22T17:17:24.677Z,6.40
2022-08-22T17:20:02.323Z,6.47
2022-08-22T17:23:05.605Z,6.80
2022-08-22T17:26:00.304Z,6.63
2022-08-22T17:28:46.704Z,6.68
2022-08-22T17:31:38.572Z,7.17
2022-08-22T17:34:29.851Z,6.63
2022-08-22T17:37:19.984Z,6.65
2022-08-22T17:40:19.889Z,6.85
2022-08-22T17:43:27.511Z,6.13
2022-08-22T17:46:56.110Z,6.67
2022-08-22T17:53:03.528Z,6.63
2022-08-22T17:55:39.459Z,6.07
2022-08-22T17:58:31.622Z,6.32
2022-08-22T18:01:32.079Z,6.73
2022-08-22T18:04:05.991Z,5.90
2022-08-22T18:10:55.496Z,6.13
2022-08-22T18:13:47.847Z,6.95
2022-08-22T18:16:33.072Z,5.43
2022-08-22T18:19:52.449Z,6.75
2022-08-22T18:22:33.131Z,6.70
2022-08-22T18:25:18.306Z,6.40
2022-08-22T18:28:10.896Z,6.13
2022-08-22T18:31:06.280Z,6.60
2022-08-22T19:36:40.089Z,6.72
2022-08-22T20:22:20.316Z,5.95
